sensor_id;sensor_type;location;lat;lon;timestamp;P1;durP1;ratioP1;P2;durP2;ratioP2
4808;SDS011;2418;49.930;8.606;2022-11-02T00:03:46;6.88;;;2.80;;
4808;SDS011;2418;49.930;8.606;2022-11-02T00:06:12;12.07;;;2.30;;
4808;SDS011;2418;49.930;8.606;2022-11-02T00:08:37;4.80;;;2.50;;
4808;SDS011;2418;49.930;8.606;2022-11-02T00:11:03;9.30;;;2.60;;
4808;SDS011;2418;49.930;8.606;2022-11-02T00:13:29;3.77;;;2.50;;
4808;SDS011;2418;49.930;8.606;2022-11-02T00:15:54;9.47;;;2.60;;
4808;SDS011;2418;49.930;8.606;2022-11-02T00:18:20;4.63;;;2.45;;
4808;SDS011;2418;49.930;8.606;2022-11-02T00:20:46;8.07;;;2.70;;
4808;SDS011;2418;49.930;8.606;2022-11-02T00:23:12;12.40;;;2.42;;
4808;SDS011;2418;49.930;8.606;2022-11-02T00:25:43;6.80;;;2.42;;
4808;SDS011;2418;49.930;8.606;2022-11-02T00:28:11;9.27;;;2.70;;
4808;SDS011;2418;49.930;8.606;2022-11-02T00:30:37;7.00;;;3.08;;
4808;SDS011;2418;49.930;8.606;2022-11-02T00:33:03;10.40;;;2.80;;
4808;SDS011;2418;49.930;8.606;2022-11-02T00:35:29;8.47;;;2.33;;
4808;SDS011;2418;49.930;8.606;2022-11-02T00:37:54;6.10;;;2.50;;
4808;SDS011;2418;49.930;8.606;2022-11-02T00:40:20;7.47;;;2.50;;
4808;SDS011;2418;49.930;8.606;2022-11-02T00:42:45;8.30;;;2.20;;
4808;SDS011;2418;49.930;8.606;2022-11-02T00:45:11;13.03;;;2.60;;
4808;SDS011;2418;49.930;8.606;2022-11-02T00:47:37;8.93;;;2.30;;
4808;SDS011;2418;49.930;8.606;2022-11-02T00:50:02;5.45;;;2.17;;
4808;SDS011;2418;49.930;8.606;2022-11-02T00:52:29;6.97;;;2.47;;
4808;SDS011;2418;49.930;8.606;2022-11-02T00:54:55;6.28;;;2.13;;
4808;SDS011;2418;49.930;8.606;2022-11-02T00:57:21;8.17;;;2.43;;
4808;SDS011;2418;49.930;8.606;2022-11-02T00:59:46;10.00;;;2.47;;
4808;SDS011;2418;49.930;8.606;2022-11-02T01:02:12;6.10;;;2.13;;
4808;SDS011;2418;49.930;8.606;2022-11-02T01:04:38;5.80;;;2.30;;
4808;SDS011;2418;49.930;8.606;2022-11-02T01:07:03;7.47;;;2.53;;
4808;SDS011;2418;49.930;8.606;2022-11-02T01:09:29;6.00;;;2.53;;
4808;SDS011;2418;49.930;8.606;2022-11-02T01:11:55;7.40;;;2.30;;
4808;SDS011;2418;49.930;8.606;2022-11-02T01:14:21;9.20;;;2.50;;
4808;SDS011;2418;49.930;8.606;2022-11-02T01:16:47;8.27;;;2.58;;
4808;SDS011;2418;49.930;8.606;2022-11-02T01:19:12;6.35;;;2.25;;
4808;SDS011;2418;49.930;8.606;2022-11-02T01:21:38;15.32;;;3.10;;
4808;SDS011;2418;49.930;8.606;2022-11-02T01:24:04;5.35;;;2.10;;
4808;SDS011;2418;49.930;8.606;2022-11-02T01:26:30;5.57;;;2.05;;
4808;SDS011;2418;49.930;8.606;2022-11-02T01:28:55;13.27;;;2.73;;
4808;SDS011;2418;49.930;8.606;2022-11-02T01:31:21;6.83;;;2.13;;
4808;SDS011;2418;49.930;8.606;2022-11-02T01:33:46;5.43;;;2.60;;
4808;SDS011;2418;49.930;8.606;2022-11-02T01:36:13;6.90;;;2.50;;
4808;SDS011;2418;49.930;8.606;2022-11-02T01:38:39;9.63;;;2.25;;
4808;SDS011;2418;49.930;8.606;2022-11-02T01:41:05;10.60;;;2.25;;
4808;SDS011;2418;49.930;8.606;2022-11-02T01:43:34;5.23;;;2.20;;
4808;SDS011;2418;49.930;8.606;2022-11-02T01:46:05;8.85;;;2.40;;
4808;SDS011;2418;49.930;8.606;2022-11-02T01:49:15;5.20;;;2.38;;
4808;SDS011;2418;49.930;8.606;2022-11-02T01:52:14;6.97;;;2.60;;
4808;SDS011;2418;49.930;8.606;2022-11-02T01:54:16;9.50;;;2.88;;
4808;SDS011;2418;49.930;8.606;2022-11-02T01:56:45;11.68;;;3.22;;
4808;SDS011;2418;49.930;8.606;2022-11-02T01:59:14;7.50;;;2.10;;
4808;SDS011;2418;49.930;8.606;2022-11-02T02:01:43;5.80;;;2.33;;
4808;SDS011;2418;49.930;8.606;2022-11-02T02:04:10;10.13;;;2.90;;
4808;SDS011;2418;49.930;8.606;2022-11-02T02:06:36;4.85;;;3.10;;
4808;SDS011;2418;49.930;8.606;2022-11-02T02:09:04;6.50;;;2.92;;
4808;SDS011;2418;49.930;8.606;2022-11-02T02:11:32;5.70;;;2.50;;
4808;SDS011;2418;49.930;8.606;2022-11-02T02:14:00;8.50;;;2.50;;
4808;SDS011;2418;49.930;8.606;2022-11-02T02:19:31;8.75;;;2.95;;
4808;SDS011;2418;49.930;8.606;2022-11-02T02:22:12;11.50;;;2.47;;
4808;SDS011;2418;49.930;8.606;2022-11-02T02:27:47;11.60;;;2.30;;
4808;SDS011;2418;49.930;8.606;2022-11-02T02:30:15;12.10;;;2.50;;
4808;SDS011;2418;49.930;8.606;2022-11-02T02:32:54;4.63;;;2.33;;
4808;SDS011;2418;49.930;8.606;2022-11-02T02:35:26;15.15;;;2.70;;
4808;SDS011;2418;49.930;8.606;2022-11-02T02:38:04;5.10;;;2.60;;
4808;SDS011;2418;49.930;8.606;2022-11-02T02:40:36;10.70;;;2.40;;
4808;SDS011;2418;49.930;8.606;2022-11-02T02:43:09;8.43;;;2.70;;
4808;SDS011;2418;49.930;8.606;2022-11-02T02:45:53;9.25;;;2.60;;
4808;SDS011;2418;49.930;8.606;2022-11-02T02:48:23;10.77;;;2.50;;
4808;SDS011;2418;49.930;8.606;2022-11-02T02:50:52;5.50;;;2.50;;
4808;SDS011;2418;49.930;8.606;2022-11-02T02:53:29;10.63;;;2.85;;
4808;SDS011;2418;49.930;8.606;2022-11-02T02:56:04;5.70;;;2.60;;
4808;SDS011;2418;49.930;8.606;2022-11-02T02:58:34;10.63;;;2.80;;
4808;SDS011;2418;49.930;8.606;2022-11-02T03:01:03;11.45;;;2.85;;
4808;SDS011;2418;49.930;8.606;2022-11-02T03:03:30;11.90;;;2.70;;
4808;SDS011;2418;49.930;8.606;2022-11-02T03:08:39;7.97;;;2.70;;
4808;SDS011;2418;49.930;8.606;2022-11-02T03:11:17;4.80;;;2.90;;
4808;SDS011;2418;49.930;8.606;2022-11-02T03:19:01;11.23;;;3.38;;
4808;SDS011;2418;49.930;8.606;2022-11-02T03:21:43;7.95;;;2.40;;
4808;SDS011;2418;49.930;8.606;2022-11-02T03:24:13;11.80;;;3.05;;
4808;SDS011;2418;49.930;8.606;2022-11-02T03:29:20;6.75;;;2.92;;
4808;SDS011;2418;49.930;8.606;2022-11-02T03:34:26;10.17;;;3.60;;
4808;SDS011;2418;49.930;8.606;2022-11-02T03:39:42;9.65;;;3.22;;
4808;SDS011;2418;49.930;8.606;2022-11-02T03:42:21;19.50;;;8.97;;
4808;SDS011;2418;49.930;8.606;2022-11-02T03:44:52;53.25;;;20.15;;
4808;SDS011;2418;49.930;8.606;2022-11-02T03:47:22;26.77;;;12.50;;
4808;SDS011;2418;49.930;8.606;2022-11-02T03:49:50;12.20;;;3.85;;
4808;SDS011;2418;49.930;8.606;2022-11-02T03:52:20;7.82;;;3.53;;
4808;SDS011;2418;49.930;8.606;2022-11-02T03:54:56;11.95;;;4.35;;
4808;SDS011;2418;49.930;8.606;2022-11-02T03:57:49;4.10;;;3.70;;
4808;SDS011;2418;49.930;8.606;2022-11-02T04:00:17;86.35;;;26.88;;
4808;SDS011;2418;49.930;8.606;2022-11-02T04:02:48;429.13;;;117.38;;
4808;SDS011;2418;49.930;8.606;2022-11-02T04:05:17;219.25;;;60.40;;
4808;SDS011;2418;49.930;8.606;2022-11-02T04:07:45;115.47;;;44.33;;
4808;SDS011;2418;49.930;8.606;2022-11-02T04:10:32;35.63;;;14.75;;
4808;SDS011;2418;49.930;8.606;2022-11-02T04:12:58;13.27;;;5.78;;
4808;SDS011;2418;49.930;8.606;2022-11-02T04:15:42;13.82;;;3.25;;
4808;SDS011;2418;49.930;8.606;2022-11-02T04:18:08;6.00;;;3.33;;
4808;SDS011;2418;49.930;8.606;2022-11-02T04:20:52;12.85;;;3.72;;
4808;SDS011;2418;49.930;8.606;2022-11-02T04:23:18;7.10;;;3.55;;
4808;SDS011;2418;49.930;8.606;2022-11-02T04:26:03;14.85;;;4.97;;
4808;SDS011;2418;49.930;8.606;2022-11-02T04:28:29;16.80;;;7.25;;
4808;SDS011;2418;49.930;8.606;2022-11-02T04:30:56;22.15;;;9.00;;
4808;SDS011;2418;49.930;8.606;2022-11-02T04:33:24;18.77;;;6.10;;
4808;SDS011;2418;49.930;8.606;2022-11-02T04:35:59;11.30;;;6.00;;
4808;SDS011;2418;49.930;8.606;2022-11-02T04:38:26;8.70;;;3.55;;
4808;SDS011;2418;49.930;8.606;2022-11-02T04:41:04;6.90;;;3.47;;
4808;SDS011;2418;49.930;8.606;2022-11-02T04:43:50;15.23;;;6.95;;
4808;SDS011;2418;49.930;8.606;2022-11-02T04:46:15;25.77;;;8.15;;
4808;SDS011;2418;49.930;8.606;2022-11-02T04:48:41;22.77;;;7.07;;
4808;SDS011;2418;49.930;8.606;2022-11-02T04:51:06;18.20;;;7.00;;
4808;SDS011;2418;49.930;8.606;2022-11-02T04:53:32;21.03;;;6.27;;
4808;SDS011;2418;49.930;8.606;2022-11-02T04:55:59;25.90;;;8.60;;
4808;SDS011;2418;49.930;8.606;2022-11-02T04:58:24;9.53;;;5.07;;
4808;SDS011;2418;49.930;8.606;2022-11-02T05:00:50;15.00;;;5.90;;
4808;SDS011;2418;49.930;8.606;2022-11-02T05:03:16;35.73;;;16.03;;
4808;SDS011;2418;49.930;8.606;2022-11-02T05:05:41;22.47;;;7.30;;
4808;SDS011;2418;49.930;8.606;2022-11-02T05:08:07;17.83;;;3.97;;
4808;SDS011;2418;49.930;8.606;2022-11-02T05:10:33;11.50;;;4.25;;
4808;SDS011;2418;49.930;8.606;2022-11-02T05:12:59;7.68;;;3.50;;
4808;SDS011;2418;49.930;8.606;2022-11-02T05:15:25;8.90;;;3.80;;
4808;SDS011;2418;49.930;8.606;2022-11-02T05:17:51;11.15;;;4.05;;
4808;SDS011;2418;49.930;8.606;2022-11-02T05:20:17;15.30;;;3.95;;
4808;SDS011;2418;49.930;8.606;2022-11-02T05:22:43;9.57;;;4.03;;
4808;SDS011;2418;49.930;8.606;2022-11-02T05:25:09;11.90;;;3.80;;
4808;SDS011;2418;49.930;8.606;2022-11-02T05:27:35;6.88;;;3.30;;
4808;SDS011;2418;49.930;8.606;2022-11-02T05:30:01;10.27;;;3.50;;
4808;SDS011;2418;49.930;8.606;2022-11-02T05:32:27;25.45;;;7.93;;
4808;SDS011;2418;49.930;8.606;2022-11-02T05:34:53;10.00;;;5.33;;
4808;SDS011;2418;49.930;8.606;2022-11-02T05:37:19;12.00;;;4.30;;
4808;SDS011;2418;49.930;8.606;2022-11-02T05:39:44;14.20;;;4.70;;
4808;SDS011;2418;49.930;8.606;2022-11-02T05:42:10;12.80;;;4.60;;
4808;SDS011;2418;49.930;8.606;2022-11-02T05:44:36;10.23;;;4.80;;
4808;SDS011;2418;49.930;8.606;2022-11-02T05:47:12;11.60;;;6.22;;
4808;SDS011;2418;49.930;8.606;2022-11-02T05:49:37;9.27;;;5.10;;
4808;SDS011;2418;49.930;8.606;2022-11-02T05:52:03;17.77;;;6.10;;
4808;SDS011;2418;49.930;8.606;2022-11-02T05:54:29;17.60;;;7.87;;
4808;SDS011;2418;49.930;8.606;2022-11-02T05:56:55;10.70;;;4.63;;
4808;SDS011;2418;49.930;8.606;2022-11-02T05:59:21;13.10;;;3.90;;
4808;SDS011;2418;49.930;8.606;2022-11-02T06:01:47;18.03;;;4.27;;
4808;SDS011;2418;49.930;8.606;2022-11-02T06:04:12;14.43;;;3.50;;
4808;SDS011;2418;49.930;8.606;2022-11-02T06:06:38;12.77;;;4.10;;
4808;SDS011;2418;49.930;8.606;2022-11-02T06:09:03;7.50;;;3.30;;
4808;SDS011;2418;49.930;8.606;2022-11-02T06:11:29;11.70;;;3.30;;
4808;SDS011;2418;49.930;8.606;2022-11-02T06:13:54;11.63;;;3.80;;
4808;SDS011;2418;49.930;8.606;2022-11-02T06:16:20;13.25;;;4.32;;
4808;SDS011;2418;49.930;8.606;2022-11-02T06:18:46;13.80;;;5.00;;
4808;SDS011;2418;49.930;8.606;2022-11-02T06:21:11;14.27;;;4.93;;
4808;SDS011;2418;49.930;8.606;2022-11-02T06:23:37;13.90;;;4.63;;
4808;SDS011;2418;49.930;8.606;2022-11-02T06:26:03;13.70;;;3.40;;
4808;SDS011;2418;49.930;8.606;2022-11-02T06:28:29;11.43;;;4.30;;
4808;SDS011;2418;49.930;8.606;2022-11-02T06:30:55;8.73;;;4.13;;
4808;SDS011;2418;49.930;8.606;2022-11-02T06:33:21;12.98;;;4.30;;
4808;SDS011;2418;49.930;8.606;2022-11-02T06:35:47;12.17;;;3.50;;
4808;SDS011;2418;49.930;8.606;2022-11-02T06:38:15;12.17;;;3.80;;
4808;SDS011;2418;49.930;8.606;2022-11-02T06:40:40;15.50;;;3.90;;
4808;SDS011;2418;49.930;8.606;2022-11-02T06:43:06;10.52;;;3.70;;
4808;SDS011;2418;49.930;8.606;2022-11-02T06:45:32;10.43;;;3.75;;
4808;SDS011;2418;49.930;8.606;2022-11-02T06:47:57;8.52;;;3.67;;
4808;SDS011;2418;49.930;8.606;2022-11-02T06:50:23;10.40;;;3.80;;
4808;SDS011;2418;49.930;8.606;2022-11-02T06:52:49;13.65;;;4.10;;
4808;SDS011;2418;49.930;8.606;2022-11-02T06:55:15;13.85;;;3.40;;
4808;SDS011;2418;49.930;8.606;2022-11-02T06:57:42;10.82;;;3.17;;
4808;SDS011;2418;49.930;8.606;2022-11-02T07:00:09;15.82;;;3.60;;
4808;SDS011;2418;49.930;8.606;2022-11-02T07:02:41;9.20;;;3.20;;
4808;SDS011;2418;49.930;8.606;2022-11-02T07:05:09;9.88;;;3.70;;
4808;SDS011;2418;49.930;8.606;2022-11-02T07:07:35;15.23;;;3.63;;
4808;SDS011;2418;49.930;8.606;2022-11-02T07:10:01;20.10;;;4.23;;
4808;SDS011;2418;49.930;8.606;2022-11-02T07:12:26;15.33;;;4.10;;
4808;SDS011;2418;49.930;8.606;2022-11-02T07:14:52;11.50;;;3.73;;
4808;SDS011;2418;49.930;8.606;2022-11-02T07:17:17;11.90;;;3.15;;
4808;SDS011;2418;49.930;8.606;2022-11-02T07:19:43;11.43;;;3.33;;
4808;SDS011;2418;49.930;8.606;2022-11-02T07:22:08;13.20;;;3.60;;
4808;SDS011;2418;49.930;8.606;2022-11-02T07:24:34;9.82;;;3.95;;
4808;SDS011;2418;49.930;8.606;2022-11-02T07:27:00;8.20;;;3.40;;
4808;SDS011;2418;49.930;8.606;2022-11-02T07:29:25;9.52;;;3.35;;
4808;SDS011;2418;49.930;8.606;2022-11-02T07:31:51;14.40;;;3.85;;
4808;SDS011;2418;49.930;8.606;2022-11-02T07:34:17;12.23;;;3.60;;
4808;SDS011;2418;49.930;8.606;2022-11-02T07:36:42;14.87;;;3.37;;
4808;SDS011;2418;49.930;8.606;2022-11-02T07:39:08;12.07;;;3.23;;
4808;SDS011;2418;49.930;8.606;2022-11-02T07:41:34;8.40;;;3.40;;
4808;SDS011;2418;49.930;8.606;2022-11-02T07:43:59;11.82;;;3.17;;
4808;SDS011;2418;49.930;8.606;2022-11-02T07:46:25;11.82;;;3.25;;
4808;SDS011;2418;49.930;8.606;2022-11-02T07:48:51;10.38;;;3.28;;
4808;SDS011;2418;49.930;8.606;2022-11-02T07:51:17;7.47;;;3.00;;
4808;SDS011;2418;49.930;8.606;2022-11-02T07:53:42;11.38;;;4.13;;
4808;SDS011;2418;49.930;8.606;2022-11-02T07:56:08;10.30;;;3.00;;
4808;SDS011;2418;49.930;8.606;2022-11-02T07:58:34;7.53;;;3.17;;
4808;SDS011;2418;49.930;8.606;2022-11-02T08:01:00;10.57;;;3.40;;
4808;SDS011;2418;49.930;8.606;2022-11-02T08:03:26;19.40;;;2.90;;
4808;SDS011;2418;49.930;8.606;2022-11-02T08:05:53;4.88;;;2.92;;
4808;SDS011;2418;49.930;8.606;2022-11-02T08:08:19;11.65;;;3.10;;
4808;SDS011;2418;49.930;8.606;2022-11-02T08:10:47;8.48;;;2.70;;
4808;SDS011;2418;49.930;8.606;2022-11-02T08:13:23;9.13;;;3.08;;
4808;SDS011;2418;49.930;8.606;2022-11-02T08:15:53;10.10;;;2.70;;
4808;SDS011;2418;49.930;8.606;2022-11-02T08:18:22;8.82;;;2.50;;
4808;SDS011;2418;49.930;8.606;2022-11-02T08:20:49;11.13;;;3.00;;
4808;SDS011;2418;49.930;8.606;2022-11-02T08:23:16;14.10;;;3.20;;
4808;SDS011;2418;49.930;8.606;2022-11-02T08:25:44;15.27;;;5.00;;
4808;SDS011;2418;49.930;8.606;2022-11-02T08:28:12;21.70;;;8.13;;
4808;SDS011;2418;49.930;8.606;2022-11-02T08:30:45;29.75;;;12.05;;
4808;SDS011;2418;49.930;8.606;2022-11-02T08:33:11;21.45;;;10.30;;
4808;SDS011;2418;49.930;8.606;2022-11-02T08:35:40;12.82;;;3.83;;
4808;SDS011;2418;49.930;8.606;2022-11-02T08:38:07;6.50;;;2.65;;
4808;SDS011;2418;49.930;8.606;2022-11-02T08:40:33;9.82;;;2.33;;
4808;SDS011;2418;49.930;8.606;2022-11-02T08:43:01;10.38;;;3.35;;
4808;SDS011;2418;49.930;8.606;2022-11-02T08:45:31;8.07;;;2.70;;
4808;SDS011;2418;49.930;8.606;2022-11-02T08:47:58;12.90;;;2.58;;
4808;SDS011;2418;49.930;8.606;2022-11-02T08:50:25;6.15;;;3.10;;
4808;SDS011;2418;49.930;8.606;2022-11-02T08:52:51;13.57;;;6.53;;
4808;SDS011;2418;49.930;8.606;2022-11-02T08:55:16;15.73;;;3.72;;
4808;SDS011;2418;49.930;8.606;2022-11-02T08:57:45;10.68;;;2.22;;
4808;SDS011;2418;49.930;8.606;2022-11-02T09:00:12;12.52;;;2.70;;
4808;SDS011;2418;49.930;8.606;2022-11-02T09:02:38;10.70;;;2.33;;
4808;SDS011;2418;49.930;8.606;2022-11-02T09:05:04;8.32;;;2.35;;
4808;SDS011;2418;49.930;8.606;2022-11-02T09:07:30;7.50;;;2.53;;
4808;SDS011;2418;49.930;8.606;2022-11-02T09:09:55;8.40;;;2.42;;
4808;SDS011;2418;49.930;8.606;2022-11-02T09:12:21;8.10;;;2.40;;
4808;SDS011;2418;49.930;8.606;2022-11-02T09:14:46;11.30;;;2.20;;
4808;SDS011;2418;49.930;8.606;2022-11-02T09:17:12;7.90;;;2.53;;
4808;SDS011;2418;49.930;8.606;2022-11-02T09:19:37;11.13;;;2.10;;
4808;SDS011;2418;49.930;8.606;2022-11-02T09:22:03;8.10;;;2.10;;
4808;SDS011;2418;49.930;8.606;2022-11-02T09:24:28;6.85;;;2.00;;
4808;SDS011;2418;49.930;8.606;2022-11-02T09:26:54;8.10;;;2.20;;
4808;SDS011;2418;49.930;8.606;2022-11-02T09:29:20;9.57;;;2.50;;
4808;SDS011;2418;49.930;8.606;2022-11-02T09:31:45;9.17;;;2.80;;
4808;SDS011;2418;49.930;8.606;2022-11-02T09:34:13;9.23;;;2.20;;
4808;SDS011;2418;49.930;8.606;2022-11-02T09:36:39;13.48;;;2.95;;
4808;SDS011;2418;49.930;8.606;2022-11-02T09:39:04;4.83;;;1.90;;
4808;SDS011;2418;49.930;8.606;2022-11-02T09:41:41;8.57;;;2.67;;
4808;SDS011;2418;49.930;8.606;2022-11-02T09:46:42;7.65;;;1.95;;
4808;SDS011;2418;49.930;8.606;2022-11-02T09:49:16;6.78;;;2.10;;
4808;SDS011;2418;49.930;8.606;2022-11-02T09:54:20;4.80;;;2.10;;
4808;SDS011;2418;49.930;8.606;2022-11-02T09:56:51;7.93;;;2.15;;
4808;SDS011;2418;49.930;8.606;2022-11-02T09:59:22;12.35;;;2.65;;
4808;SDS011;2418;49.930;8.606;2022-11-02T10:12:49;9.55;;;2.10;;
4808;SDS011;2418;49.930;8.606;2022-11-02T10:15:27;9.80;;;2.75;;
4808;SDS011;2418;49.930;8.606;2022-11-02T10:18:00;10.65;;;2.33;;
4808;SDS011;2418;49.930;8.606;2022-11-02T10:20:43;11.07;;;2.80;;
4808;SDS011;2418;49.930;8.606;2022-11-02T10:23:11;6.25;;;2.42;;
4808;SDS011;2418;49.930;8.606;2022-11-02T10:25:48;6.28;;;2.30;;
4808;SDS011;2418;49.930;8.606;2022-11-02T10:28:16;7.23;;;2.30;;
4808;SDS011;2418;49.930;8.606;2022-11-02T10:30:45;4.45;;;1.70;;
4808;SDS011;2418;49.930;8.606;2022-11-02T10:33:14;14.63;;;2.70;;
4808;SDS011;2418;49.930;8.606;2022-11-02T10:41:14;8.65;;;2.75;;
4808;SDS011;2418;49.930;8.606;2022-11-02T10:51:50;7.63;;;1.90;;
4808;SDS011;2418;49.930;8.606;2022-11-02T10:54:16;4.10;;;1.80;;
4808;SDS011;2418;49.930;8.606;2022-11-02T10:56:42;7.60;;;2.20;;
4808;SDS011;2418;49.930;8.606;2022-11-02T10:59:15;13.52;;;2.30;;
4808;SDS011;2418;49.930;8.606;2022-11-02T11:02:30;13.50;;;3.13;;
4808;SDS011;2418;49.930;8.606;2022-11-02T11:04:37;8.73;;;2.35;;
4808;SDS011;2418;49.930;8.606;2022-11-02T11:07:16;10.70;;;1.95;;
4808;SDS011;2418;49.930;8.606;2022-11-02T11:09:50;9.00;;;2.50;;
4808;SDS011;2418;49.930;8.606;2022-11-02T11:12:28;8.07;;;2.00;;
4808;SDS011;2418;49.930;8.606;2022-11-02T11:14:56;6.35;;;1.73;;
4808;SDS011;2418;49.930;8.606;2022-11-02T11:17:42;6.50;;;1.80;;
4808;SDS011;2418;49.930;8.606;2022-11-02T11:23:17;5.82;;;2.70;;
4808;SDS011;2418;49.930;8.606;2022-11-02T11:25:57;8.52;;;3.20;;
4808;SDS011;2418;49.930;8.606;2022-11-02T11:33:32;8.80;;;3.33;;
4808;SDS011;2418;49.930;8.606;2022-11-02T11:36:07;15.20;;;3.10;;
4808;SDS011;2418;49.930;8.606;2022-11-02T11:38:34;6.03;;;1.93;;
4808;SDS011;2418;49.930;8.606;2022-11-02T11:41:00;6.47;;;1.85;;
4808;SDS011;2418;49.930;8.606;2022-11-02T11:43:29;4.70;;;1.80;;
4808;SDS011;2418;49.930;8.606;2022-11-02T11:51:00;10.07;;;1.90;;
4808;SDS011;2418;49.930;8.606;2022-11-02T11:53:30;7.00;;;1.60;;
4808;SDS011;2418;49.930;8.606;2022-11-02T11:55:56;11.20;;;2.08;;
4808;SDS011;2418;49.930;8.606;2022-11-02T11:58:32;6.13;;;1.55;;
4808;SDS011;2418;49.930;8.606;2022-11-02T12:03:30;9.00;;;1.80;;
4808;SDS011;2418;49.930;8.606;2022-11-02T12:06:00;9.70;;;1.67;;
4808;SDS011;2418;49.930;8.606;2022-11-02T12:08:57;5.55;;;1.60;;
4808;SDS011;2418;49.930;8.606;2022-11-02T12:11:45;5.63;;;1.88;;
4808;SDS011;2418;49.930;8.606;2022-11-02T12:14:33;7.78;;;2.22;;
4808;SDS011;2418;49.930;8.606;2022-11-02T12:23:01;9.00;;;2.20;;
4808;SDS011;2418;49.930;8.606;2022-11-02T12:31:24;7.90;;;1.83;;
4808;SDS011;2418;49.930;8.606;2022-11-02T12:34:16;8.77;;;1.75;;
4808;SDS011;2418;49.930;8.606;2022-11-02T12:40:01;5.55;;;1.70;;
4808;SDS011;2418;49.930;8.606;2022-11-02T12:42:36;9.20;;;1.77;;
4808;SDS011;2418;49.930;8.606;2022-11-02T12:47:54;7.00;;;1.58;;
4808;SDS011;2418;49.930;8.606;2022-11-02T12:55:21;6.97;;;2.13;;
4808;SDS011;2418;49.930;8.606;2022-11-02T12:57:49;10.85;;;2.53;;
4808;SDS011;2418;49.930;8.606;2022-11-02T13:00:19;5.80;;;1.90;;
4808;SDS011;2418;49.930;8.606;2022-11-02T13:02:56;6.60;;;1.85;;
4808;SDS011;2418;49.930;8.606;2022-11-02T13:05:32;7.03;;;1.77;;
4808;SDS011;2418;49.930;8.606;2022-11-02T13:08:19;5.18;;;1.77;;
4808;SDS011;2418;49.930;8.606;2022-11-02T13:10:51;5.53;;;1.50;;
4808;SDS011;2418;49.930;8.606;2022-11-02T13:13:32;6.13;;;1.80;;
4808;SDS011;2418;49.930;8.606;2022-11-02T13:16:30;3.97;;;2.00;;
4808;SDS011;2418;49.930;8.606;2022-11-02T13:19:19;8.60;;;1.95;;
4808;SDS011;2418;49.930;8.606;2022-11-02T13:21:51;11.40;;;1.80;;
4808;SDS011;2418;49.930;8.606;2022-11-02T13:24:21;8.10;;;2.33;;
4808;SDS011;2418;49.930;8.606;2022-11-02T13:26:52;6.07;;;1.60;;
4808;SDS011;2418;49.930;8.606;2022-11-02T13:32:17;4.97;;;1.75;;
4808;SDS011;2418;49.930;8.606;2022-11-02T13:34:58;10.03;;;2.50;;
4808;SDS011;2418;49.930;8.606;2022-11-02T13:37:34;8.17;;;2.23;;
4808;SDS011;2418;49.930;8.606;2022-11-02T13:40:13;6.18;;;1.98;;
4808;SDS011;2418;49.930;8.606;2022-11-02T13:54:26;6.03;;;1.73;;
4808;SDS011;2418;49.930;8.606;2022-11-02T13:56:56;8.73;;;2.05;;
4808;SDS011;2418;49.930;8.606;2022-11-02T13:59:27;8.70;;;1.60;;
4808;SDS011;2418;49.930;8.606;2022-11-02T14:01:56;7.70;;;1.63;;
4808;SDS011;2418;49.930;8.606;2022-11-02T14:04:25;1.95;;;1.63;;
4808;SDS011;2418;49.930;8.606;2022-11-02T14:06:58;8.68;;;1.70;;
4808;SDS011;2418;49.930;8.606;2022-11-02T14:09:32;6.68;;;1.35;;
4808;SDS011;2418;49.930;8.606;2022-11-02T14:20:35;9.27;;;1.60;;
4808;SDS011;2418;49.930;8.606;2022-11-02T14:23:48;4.57;;;1.83;;
4808;SDS011;2418;49.930;8.606;2022-11-02T14:25:52;9.40;;;1.80;;
4808;SDS011;2418;49.930;8.606;2022-11-02T14:30:45;3.85;;;1.48;;
4808;SDS011;2418;49.930;8.606;2022-11-02T14:33:23;10.90;;;2.10;;
4808;SDS011;2418;49.930;8.606;2022-11-02T14:35:56;5.50;;;2.20;;
4808;SDS011;2418;49.930;8.606;2022-11-02T14:49:38;6.47;;;2.00;;
4808;SDS011;2418;49.930;8.606;2022-11-02T14:57:30;2.97;;;1.60;;
4808;SDS011;2418;49.930;8.606;2022-11-02T15:00:04;4.80;;;1.80;;
4808;SDS011;2418;49.930;8.606;2022-11-02T15:02:42;4.32;;;1.90;;
4808;SDS011;2418;49.930;8.606;2022-11-02T15:05:18;5.80;;;2.28;;
4808;SDS011;2418;49.930;8.606;2022-11-02T15:07:47;7.13;;;2.60;;
4808;SDS011;2418;49.930;8.606;2022-11-02T15:23:46;8.43;;;2.03;;
4808;SDS011;2418;49.930;8.606;2022-11-02T15:26:15;8.68;;;2.20;;
4808;SDS011;2418;49.930;8.606;2022-11-02T15:29:03;11.05;;;3.33;;
4808;SDS011;2418;49.930;8.606;2022-11-02T15:31:30;10.65;;;4.25;;
4808;SDS011;2418;49.930;8.606;2022-11-02T15:34:00;16.73;;;4.63;;
4808;SDS011;2418;49.930;8.606;2022-11-02T15:36:30;17.45;;;4.78;;
4808;SDS011;2418;49.930;8.606;2022-11-02T15:38:59;16.17;;;5.35;;
4808;SDS011;2418;49.930;8.606;2022-11-02T16:01:05;13.20;;;4.97;;
4808;SDS011;2418;49.930;8.606;2022-11-02T16:03:46;29.83;;;13.95;;
4808;SDS011;2418;49.930;8.606;2022-11-02T16:08:51;21.83;;;10.05;;
4808;SDS011;2418;49.930;8.606;2022-11-02T16:11:18;15.68;;;7.25;;
4808;SDS011;2418;49.930;8.606;2022-11-02T16:13:46;12.30;;;4.70;;
4808;SDS011;2418;49.930;8.606;2022-11-02T16:16:14;7.38;;;4.70;;
4808;SDS011;2418;49.930;8.606;2022-11-02T16:18:42;16.03;;;5.53;;
4808;SDS011;2418;49.930;8.606;2022-11-02T16:21:12;13.98;;;7.50;;
4808;SDS011;2418;49.930;8.606;2022-11-02T16:23:41;13.93;;;5.28;;
4808;SDS011;2418;49.930;8.606;2022-11-02T16:26:19;18.85;;;7.10;;
4808;SDS011;2418;49.930;8.606;2022-11-02T16:28:48;13.63;;;6.10;;
4808;SDS011;2418;49.930;8.606;2022-11-02T16:31:22;17.38;;;5.80;;
4808;SDS011;2418;49.930;8.606;2022-11-02T16:33:55;13.90;;;5.05;;
4808;SDS011;2418;49.930;8.606;2022-11-02T16:36:34;14.90;;;5.22;;
4808;SDS011;2418;49.930;8.606;2022-11-02T16:41:44;47.97;;;21.85;;
4808;SDS011;2418;49.930;8.606;2022-11-02T16:44:24;55.97;;;25.50;;
4808;SDS011;2418;49.930;8.606;2022-11-02T16:49:23;12.95;;;7.30;;
4808;SDS011;2418;49.930;8.606;2022-11-02T16:51:51;18.58;;;6.00;;
4808;SDS011;2418;49.930;8.606;2022-11-02T16:54:38;17.70;;;5.90;;
4808;SDS011;2418;49.930;8.606;2022-11-02T16:57:08;8.32;;;4.40;;
4808;SDS011;2418;49.930;8.606;2022-11-02T16:59:37;17.33;;;3.40;;
4808;SDS011;2418;49.930;8.606;2022-11-02T17:02:36;10.77;;;3.80;;
4808;SDS011;2418;49.930;8.606;2022-11-02T17:05:03;11.27;;;3.60;;
4808;SDS011;2418;49.930;8.606;2022-11-02T17:08:24;10.73;;;3.88;;
4808;SDS011;2418;49.930;8.606;2022-11-02T17:10:33;8.93;;;3.40;;
4808;SDS011;2418;49.930;8.606;2022-11-02T17:13:01;9.30;;;3.38;;
4808;SDS011;2418;49.930;8.606;2022-11-02T17:15:30;9.65;;;3.10;;
4808;SDS011;2418;49.930;8.606;2022-11-02T17:20:31;14.80;;;4.90;;
4808;SDS011;2418;49.930;8.606;2022-11-02T17:22:58;13.18;;;6.28;;
4808;SDS011;2418;49.930;8.606;2022-11-02T17:25:38;10.80;;;4.80;;
4808;SDS011;2418;49.930;8.606;2022-11-02T17:29:27;13.85;;;3.60;;
4808;SDS011;2418;49.930;8.606;2022-11-02T17:31:17;12.43;;;3.92;;
4808;SDS011;2418;49.930;8.606;2022-11-02T17:33:48;11.68;;;3.30;;
4808;SDS011;2418;49.930;8.606;2022-11-02T17:36:14;12.00;;;5.50;;
4808;SDS011;2418;49.930;8.606;2022-11-02T17:38:41;17.05;;;5.82;;
4808;SDS011;2418;49.930;8.606;2022-11-02T17:41:10;14.75;;;6.40;;
4808;SDS011;2418;49.930;8.606;2022-11-02T17:43:58;15.65;;;6.00;;
4808;SDS011;2418;49.930;8.606;2022-11-02T17:46:23;17.03;;;5.83;;
4808;SDS011;2418;49.930;8.606;2022-11-02T17:48:49;11.87;;;5.60;;
4808;SDS011;2418;49.930;8.606;2022-11-02T17:51:15;17.70;;;6.73;;
4808;SDS011;2418;49.930;8.606;2022-11-02T17:53:43;15.27;;;6.70;;
4808;SDS011;2418;49.930;8.606;2022-11-02T17:56:09;17.47;;;6.30;;
4808;SDS011;2418;49.930;8.606;2022-11-02T17:58:35;11.77;;;5.77;;
4808;SDS011;2418;49.930;8.606;2022-11-02T18:01:02;15.83;;;5.90;;
4808;SDS011;2418;49.930;8.606;2022-11-02T18:03:28;18.70;;;6.47;;
4808;SDS011;2418;49.930;8.606;2022-11-02T18:05:54;15.65;;;6.60;;
4808;SDS011;2418;49.930;8.606;2022-11-02T18:08:20;15.50;;;6.30;;
4808;SDS011;2418;49.930;8.606;2022-11-02T18:10:46;22.30;;;6.30;;
4808;SDS011;2418;49.930;8.606;2022-11-02T18:13:15;13.50;;;5.40;;
4808;SDS011;2418;49.930;8.606;2022-11-02T18:15:43;13.05;;;5.95;;
4808;SDS011;2418;49.930;8.606;2022-11-02T18:18:09;14.75;;;6.53;;
4808;SDS011;2418;49.930;8.606;2022-11-02T18:20:35;14.50;;;6.55;;
4808;SDS011;2418;49.930;8.606;2022-11-02T18:23:01;15.43;;;5.95;;